Time;durP1;ratioP1;P1;durP2;ratioP2;P2;SDS_P1;SDS_P2;PMS_P1;PMS_P2;Temp;Humidity;BMP_temperature;BMP_pressure;BME280_temperature;BME280_humidity;BME280_pressure;Samples;Min_cycle;Max_cycle;Signal;HPM_P1;HPM_P2
2022/06/28 00:00:21;;;;;;;6.50;2.40;;;;;18.30;97732.60;;;;110463;1253;41469;-66
2022/06/28 00:03:04;;;;;;;5.60;2.50;;;;;18.28;97735.80;;;;110483;1253;41271;-67
2022/06/28 00:05:37;;;;;;;5.00;2.30;;;;;18.20;97735.00;;;;110485;1254;41168;-67
2022/06/28 00:08:07;;;;;;;7.40;2.50;;;;;18.20;97739.80;;;;110480;1253;41574;-66
2022/06/28 00:10:43;;;;;;;7.30;2.90;;;;;18.20;97743.80;;;;110306;1255;41844;-66
2022/06/28 00:13:18;;;;;;;7.10;3.10;;;;;18.10;97742.80;;;;110619;1252;41596;-67
2022/06/28 00:16:07;;;;;;;5.40;2.50;;;;;18.10;97744.60;;;;110584;1251;41167;-67
2022/06/28 00:18:39;;;;;;;5.30;2.40;;;;;18.10;97735.40;;;;110633;1252;41530;-67
2022/06/28 00:21:09;;;;;;;4.90;2.30;;;;;18.00;97739.80;;;;110503;1255;41272;-68
2022/06/28 00:23:42;;;;;;;6.60;2.70;;;;;18.00;97736.40;;;;110435;1254;41314;-67
2022/06/28 00:26:12;;;;;;;5.00;2.20;;;;;18.00;97732.80;;;;110526;1253;41465;-67
2022/06/28 00:28:41;;;;;;;5.20;2.50;;;;;18.00;97726.20;;;;110442;1252;41164;-66
2022/06/28 00:31:11;;;;;;;7.80;2.80;;;;;18.00;97730.40;;;;110429;1254;41628;-67
2022/06/28 00:33:41;;;;;;;6.80;2.80;;;;;18.00;97724.80;;;;110542;1253;42553;-67
2022/06/28 00:36:11;;;;;;;5.40;2.40;;;;;18.00;97723.20;;;;110387;1256;41197;-66
2022/06/28 00:38:41;;;;;;;5.50;2.30;;;;;17.96;97725.20;;;;110524;1253;41247;-65
2022/06/28 00:41:11;;;;;;;5.10;2.20;;;;;17.90;97720.60;;;;110527;1253;41621;-66
2022/06/28 00:43:41;;;;;;;5.30;2.40;;;;;17.90;97722.00;;;;110548;1253;41642;-66
2022/06/28 00:46:10;;;;;;;5.70;2.70;;;;;17.90;97714.60;;;;110444;1253;41233;-67
2022/06/28 00:48:40;;;;;;;5.00;2.30;;;;;17.86;97715.60;;;;110498;1254;41165;-64
2022/06/28 00:51:10;;;;;;;5.00;2.20;;;;;17.80;97710.00;;;;110518;1254;42901;-65
2022/06/28 00:53:39;;;;;;;5.50;2.30;;;;;17.80;97711.80;;;;110341;1255;41275;-66
2022/06/28 00:56:09;;;;;;;7.50;3.20;;;;;17.80;97710.00;;;;110465;1253;41605;-67
2022/06/28 00:58:39;;;;;;;6.20;2.70;;;;;17.80;97709.60;;;;110431;1253;41215;-66
2022/06/28 01:01:09;;;;;;;8.60;3.20;;;;;17.72;97711.00;;;;110283;1254;41287;-66
2022/06/28 01:03:40;;;;;;;9.00;3.40;;;;;17.70;97707.40;;;;110384;1256;41657;-66
2022/06/28 01:06:11;;;;;;;8.60;3.20;;;;;17.60;97711.20;;;;110475;1254;41159;-66
2022/06/28 01:08:41;;;;;;;7.30;3.00;;;;;17.42;97712.00;;;;110497;1253;41918;-65
2022/06/28 01:11:23;;;;;;;7.20;3.20;;;;;17.30;97714.80;;;;110502;1253;41172;-65
2022/06/28 01:13:58;;;;;;;8.10;2.80;;;;;17.30;97713.80;;;;110427;1255;41176;-66
2022/06/28 01:16:31;;;;;;;6.10;2.70;;;;;17.22;97715.40;;;;110523;1253;41620;-67
2022/06/28 01:19:14;;;;;;;5.70;2.40;;;;;17.20;97721.60;;;;110390;1253;41298;-66
2022/06/28 01:21:49;;;;;;;5.30;2.40;;;;;17.20;97724.20;;;;110326;1254;41938;-67
2022/06/28 01:24:19;;;;;;;6.60;2.60;;;;;17.20;97724.60;;;;110350;1254;41166;-66
2022/06/28 01:26:56;;;;;;;6.50;2.80;;;;;17.20;97726.00;;;;110404;1254;41243;-66
2022/06/28 01:29:28;;;;;;;5.90;2.90;;;;;17.20;97729.80;;;;110312;1256;41196;-67
2022/06/28 01:32:16;;;;;;;9.00;3.40;;;;;17.20;97729.40;;;;110494;1253;41266;-66
2022/06/28 01:34:46;;;;;;;8.10;3.80;;;;;17.06;97734.00;;;;110362;1253;41142;-67
2022/06/28 01:37:17;;;;;;;8.60;3.50;;;;;17.00;97737.00;;;;110187;1254;41208;-66
2022/06/28 01:39:48;;;;;;;8.40;3.50;;;;;16.90;97737.60;;;;110387;1253;41140;-66
2022/06/28 01:42:18;;;;;;;8.80;3.50;;;;;16.82;97739.20;;;;110263;1254;41150;-67
2022/06/28 01:44:48;;;;;;;;;;;;;16.70;97737.40;;;;110293;1254;41836;-67
2022/06/28 01:47:35;;;;;;;6.60;2.90;;;;;16.70;97731.60;;;;110426;1256;41258;-66
2022/06/28 01:50:11;;;;;;;6.80;2.70;;;;;16.70;97729.00;;;;110495;1254;41276;-67
2022/06/28 01:52:44;;;;;;;8.50;3.70;;;;;16.70;97730.20;;;;110493;1254;41154;-67
2022/06/28 01:55:32;;;;;;;8.00;3.30;;;;;16.70;97741.00;;;;110377;1253;41642;-65
2022/06/28 01:58:04;;;;;;;9.10;3.80;;;;;16.62;97742.20;;;;110531;1254;41966;-67
2022/06/28 02:00:38;;;;;;;8.00;3.70;;;;;16.62;97742.00;;;;110436;1254;41145;-66
2022/06/28 02:03:08;;;;;;;8.40;3.70;;;;;16.60;97740.40;;;;110349;1254;41177;-66
2022/06/28 02:06:12;;;;;;;7.40;3.30;;;;;16.60;97735.80;;;;110257;1254;42423;-67
2022/06/28 02:08:43;;;;;;;6.90;2.90;;;;;16.68;97740.20;;;;110512;1254;41919;-67
2022/06/28 02:11:20;;;;;;;6.10;2.70;;;;;16.70;97738.60;;;;110478;1254;41249;-67
2022/06/28 02:13:52;;;;;;;6.20;2.60;;;;;16.70;97732.60;;;;110459;1253;41270;-67
2022/06/28 02:16:22;;;;;;;6.80;2.70;;;;;16.68;97732.00;;;;110336;1256;42082;-67
2022/06/28 02:18:54;;;;;;;9.30;3.30;;;;;16.68;97728.60;;;;110323;1254;41826;-67
2022/06/28 02:21:24;;;;;;;7.60;3.00;;;;;16.68;97727.40;;;;110515;1254;41160;-67
2022/06/28 02:23:54;;;;;;;8.40;3.80;;;;;16.70;97726.80;;;;110532;1253;42026;-67
2022/06/28 02:26:25;;;;;;;7.40;3.40;;;;;16.62;97728.00;;;;110432;1253;41385;-67
2022/06/28 02:28:55;;;;;;;7.00;3.10;;;;;16.60;97728.80;;;;110273;1256;41186;-66
2022/06/28 02:31:25;;;;;;;7.30;3.40;;;;;16.60;97730.20;;;;110313;1255;41906;-67
2022/06/28 02:33:56;;;;;;;7.70;3.80;;;;;16.60;97730.80;;;;110285;1256;41274;-67
2022/06/28 02:42:01;;;;;;;7.50;3.00;;;;;16.60;97732.20;;;;110196;1256;41338;-65
2022/06/28 02:44:32;;;;;;;6.40;2.70;;;;;16.60;97737.80;;;;110469;1253;41261;-66
2022/06/28 02:47:02;;;;;;;5.70;2.60;;;;;16.60;97736.20;;;;110449;1254;41259;-67
2022/06/28 02:49:34;;;;;;;7.30;3.30;;;;;16.60;97733.20;;;;110449;1255;41172;-68
2022/06/28 02:52:04;;;;;;;7.80;3.30;;;;;16.60;97738.40;;;;110360;1254;41544;-66
2022/06/28 02:54:34;;;;;;;7.90;3.30;;;;;16.54;97740.60;;;;110439;1253;41146;-65
2022/06/28 02:57:05;;;;;;;6.90;3.10;;;;;16.50;97732.60;;;;110497;1253;41250;-66
2022/06/28 02:59:34;;;;;;;5.70;2.80;;;;;16.50;97735.40;;;;110257;1255;41860;-67
2022/06/28 03:02:06;;;;;;;8.70;2.80;;;;;16.58;97736.20;;;;110474;1253;42506;-67
2022/06/28 03:04:36;;;;;;;5.80;2.80;;;;;16.60;97738.60;;;;110277;1254;41490;-66
2022/06/28 03:07:06;;;;;;;5.90;2.60;;;;;16.60;97741.40;;;;110355;1253;41168;-67
2022/06/28 03:09:36;;;;;;;5.50;2.60;;;;;16.60;97743.60;;;;110436;1255;41136;-66
2022/06/28 03:12:06;;;;;;;6.10;2.30;;;;;16.60;97739.00;;;;110427;1253;41150;-67
2022/06/28 03:14:37;;;;;;;;;;;;;16.62;97740.20;;;;110478;1253;41264;-64
2022/06/28 03:17:07;;;;;;;8.00;3.60;;;;;16.70;97734.80;;;;110329;1255;42231;-66
2022/06/28 03:19:38;;;;;;;6.70;3.20;;;;;16.70;97733.00;;;;110412;1253;41259;-66
2022/06/28 03:22:09;;;;;;;6.80;3.10;;;;;16.70;97731.00;;;;110275;1256;41170;-65
2022/06/28 03:24:40;;;;;;;6.00;2.70;;;;;16.70;97728.60;;;;110373;1254;41146;-65
2022/06/28 03:27:09;;;;;;;7.00;2.90;;;;;16.70;97725.20;;;;110415;1254;41289;-65
2022/06/28 03:29:42;;;;;;;7.10;3.50;;;;;16.74;97731.40;;;;110248;1254;41531;-66
2022/06/28 03:32:18;;;;;;;7.30;3.10;;;;;16.80;97731.40;;;;110366;1254;42171;-65
2022/06/28 03:34:47;;;;;;;7.60;3.30;;;;;16.80;97730.80;;;;110465;1253;42258;-65
2022/06/28 03:37:19;;;;;;;7.00;3.20;;;;;16.80;97733.20;;;;110336;1253;41189;-65
2022/06/28 03:39:52;;;;;;;7.20;3.40;;;;;16.78;97732.00;;;;110403;1253;41250;-65
2022/06/28 03:42:23;;;;;;;6.70;3.10;;;;;16.80;97734.80;;;;110335;1256;41190;-65
2022/06/28 03:44:54;;;;;;;7.00;3.10;;;;;16.80;97736.40;;;;110479;1254;41141;-65
2022/06/28 03:47:24;;;;;;;5.40;2.60;;;;;16.88;97739.60;;;;110320;1254;41201;-65
2022/06/28 03:50:22;;;;;;;8.20;3.80;;;;;16.90;97740.60;;;;110313;1254;41644;-66
2022/06/28 03:52:55;;;;;;;7.70;3.80;;;;;16.80;97748.40;;;;110401;1254;41380;-66
2022/06/28 03:56:04;;;;;;;6.90;3.10;;;;;16.90;97749.20;;;;110255;1254;42489;-65
2022/06/28 03:58:36;;;;;;;6.90;3.20;;;;;17.00;97752.20;;;;110493;1253;42384;-67
2022/06/28 04:01:06;;;;;;;7.20;2.90;;;;;17.10;97753.00;;;;110381;1253;41161;-66
2022/06/28 04:03:35;;;;;;;6.90;2.60;;;;;17.20;97742.80;;;;110479;1253;41723;-66
2022/06/28 04:06:06;;;;;;;7.60;3.20;;;;;17.34;97742.80;;;;110460;1256;41172;-66
2022/06/28 04:08:37;;;;;;;5.60;2.60;;;;;17.50;97742.00;;;;110267;1253;41182;-65
2022/06/28 04:11:16;;;;;;;6.50;2.80;;;;;17.62;97738.60;;;;110293;1254;41283;-65
2022/06/28 04:13:52;;;;;;;8.00;3.70;;;;;17.80;97737.80;;;;110320;1256;41602;-65
2022/06/28 04:16:23;;;;;;;7.70;3.70;;;;;17.90;97742.60;;;;110331;1256;41921;-65
2022/06/28 04:18:56;;;;;;;7.30;3.50;;;;;18.00;97741.40;;;;110345;1254;41696;-65
2022/06/28 04:21:32;;;;;;;7.30;3.20;;;;;18.20;97746.60;;;;110375;1256;41273;-66
2022/06/28 04:24:16;;;;;;;7.70;3.40;;;;;18.50;97744.00;;;;110433;1254;41807;-65
2022/06/28 04:27:12;;;;;;;8.20;3.60;;;;;19.72;97718.80;;;;110249;1254;42289;-64
2022/06/28 04:29:42;;;;;;;8.50;4.40;;;;;21.02;97714.80;;;;110410;1253;41316;-65
2022/06/28 04:32:28;;;;;;;8.10;3.80;;;;;22.16;97717.00;;;;110374;1253;41273;-66
2022/06/28 04:34:58;;;;;;;8.30;3.30;;;;;22.48;97713.80;;;;110522;1254;41957;-65
2022/06/28 04:37:28;;;;;;;10.10;3.90;;;;;23.30;97714.00;;;;110429;1253;41622;-66
2022/06/28 04:40:00;;;;;;;10.20;3.40;;;;;23.90;97712.20;;;;110419;1255;41271;-63
2022/06/28 04:42:39;;;;;;;7.60;3.30;;;;;24.44;97705.40;;;;110437;1254;41581;-66
2022/06/28 04:45:10;;;;;;;;;;;;;25.22;97699.40;;;;110322;1253;41500;-65
2022/06/28 04:47:51;;;;;;;9.80;3.60;;;;;25.94;97696.80;;;;110494;1253;41272;-65
2022/06/28 04:50:21;;;;;;;7.80;3.50;;;;;26.26;97693.40;;;;110451;1253;42404;-64
2022/06/28 04:52:51;;;;;;;7.90;3.70;;;;;26.40;97694.40;;;;110596;1253;41146;-66
2022/06/28 04:55:21;;;;;;;8.10;4.00;;;;;26.22;97722.60;;;;110268;1253;41143;-66
2022/06/28 04:58:00;;;;;;;7.90;3.40;;;;;25.24;97725.20;;;;110178;1254;41264;-66
2022/06/28 05:00:31;;;;;;;11.00;3.00;;;;;24.60;97728.20;;;;110342;1255;41154;-66
2022/06/28 05:03:21;;;;;;;9.00;3.40;;;;;24.02;97733.00;;;;110466;1254;41716;-65
2022/06/28 05:06:03;;;;;;;10.10;3.30;;;;;23.66;97734.60;;;;110501;1254;41250;-66
2022/06/28 05:08:33;;;;;;;7.50;3.00;;;;;23.40;97738.60;;;;110417;1254;42929;-65
2022/06/28 05:11:06;;;;;;;11.20;3.80;;;;;23.54;97726.60;;;;110341;1254;42460;-63
2022/06/28 05:13:44;;;;;;;;;;;;;23.40;97743.20;;;;110490;1255;41261;-65
2022/06/28 05:16:16;;;;;;;7.50;3.00;;;;;23.20;97752.00;;;;110218;1256;41252;-65
2022/06/28 05:18:46;;;;;;;7.10;2.90;;;;;23.00;97753.00;;;;110411;1256;41169;-65
2022/06/28 05:21:16;;;;;;;;;;;;;22.90;97749.60;;;;110413;1253;41603;-66
2022/06/28 05:23:46;;;;;;;6.40;3.00;;;;;22.90;97757.20;;;;110517;1253;41161;-63
2022/06/28 05:26:42;;;;;;;7.00;2.90;;;;;22.90;97758.80;;;;110457;1255;41272;-66
2022/06/28 05:29:20;;;;;;;6.70;2.80;;;;;22.90;97751.60;;;;110441;1254;41255;-65
2022/06/28 05:31:50;;;;;;;8.60;3.60;;;;;22.92;97746.20;;;;110451;1254;41932;-66
2022/06/28 05:34:22;;;;;;;8.00;3.40;;;;;22.90;97749.00;;;;110459;1253;42402;-65
2022/06/28 05:36:52;;;;;;;12.10;3.30;;;;;22.98;97747.80;;;;110503;1253;41201;-65
2022/06/28 05:39:21;;;;;;;8.20;3.50;;;;;23.10;97746.20;;;;110508;1253;41721;-65
2022/06/28 05:41:50;;;;;;;7.90;3.50;;;;;23.06;97747.20;;;;110331;1256;41773;-66
2022/06/28 05:44:20;;;;;;;8.90;3.50;;;;;23.10;97745.40;;;;110226;1255;42037;-66
2022/06/28 05:46:50;;;;;;;8.80;3.30;;;;;23.30;97743.80;;;;110294;1254;41153;-64
2022/06/28 05:49:20;;;;;;;9.60;3.80;;;;;23.50;97748.20;;;;110473;1254;41139;-66
2022/06/28 05:51:50;;;;;;;8.40;3.30;;;;;23.36;97747.40;;;;110499;1253;41211;-66
2022/06/28 05:54:19;;;;;;;8.10;3.70;;;;;23.40;97743.00;;;;110467;1256;41149;-66
2022/06/28 05:56:49;;;;;;;9.50;4.30;;;;;23.30;97737.80;;;;110476;1253;41729;-65
2022/06/28 05:59:19;;;;;;;;;;;;;23.24;97736.20;;;;110505;1253;41147;-66
2022/06/28 06:01:49;;;;;;;6.60;3.00;;;;;23.30;97737.80;;;;110508;1253;41155;-66
2022/06/28 06:04:19;;;;;;;9.00;3.30;;;;;23.60;97732.00;;;;110325;1253;40790;-65
2022/06/28 06:06:48;;;;;;;11.10;2.90;;;;;24.10;97744.60;;;;110491;1254;41175;-65
2022/06/28 06:09:18;;;;;;;7.30;3.40;;;;;24.40;97748.80;;;;110323;1254;41143;-66
2022/06/28 06:11:47;;;;;;;7.20;3.30;;;;;24.60;97750.00;;;;110304;1256;42381;-66
2022/06/28 06:14:21;;;;;;;15.10;3.10;;;;;24.70;97747.00;;;;110293;1256;41164;-67
2022/06/28 06:16:51;;;;;;;8.10;2.90;;;;;24.80;97744.80;;;;110349;1255;41137;-66
2022/06/28 06:19:21;;;;;;;8.20;3.00;;;;;24.90;97744.20;;;;110341;1256;41997;-67
2022/06/28 06:21:51;;;;;;;6.60;3.00;;;;;25.10;97741.60;;;;110199;1256;42089;-66
2022/06/28 06:24:21;;;;;;;8.10;3.00;;;;;25.44;97734.00;;;;110328;1253;41715;-66
2022/06/28 06:27:17;;;;;;;6.90;3.10;;;;;26.70;97736.80;;;;110474;1253;41694;-67
2022/06/28 06:29:47;;;;;;;7.50;3.50;;;;;27.50;97749.40;;;;110346;1256;41654;-66
2022/06/28 06:32:21;;;;;;;8.00;3.00;;;;;27.70;97745.00;;;;110463;1254;41154;-67
2022/06/28 06:35:10;;;;;;;10.20;3.30;;;;;28.22;97736.20;;;;110626;1254;41168;-67
2022/06/28 06:37:40;;;;;;;7.00;3.00;;;;;28.70;97735.00;;;;110494;1255;41159;-64
2022/06/28 06:40:10;;;;;;;10.40;3.00;;;;;28.88;97739.80;;;;110386;1253;41172;-66
2022/06/28 06:42:39;;;;;;;6.60;2.80;;;;;29.02;97732.00;;;;110424;1254;41245;-67
2022/06/28 06:45:14;;;;;;;7.30;3.00;;;;;29.78;97736.60;;;;110364;1255;41184;-67
2022/06/28 06:47:43;;;;;;;;;;;;;30.20;97739.40;;;;110545;1254;41176;-67
2022/06/28 06:50:13;;;;;;;7.20;2.90;;;;;30.20;97740.80;;;;110533;1253;41854;-67
2022/06/28 06:52:42;;;;;;;6.30;2.70;;;;;30.30;97740.00;;;;110609;1255;42173;-67
2022/06/28 06:55:12;;;;;;;7.20;2.90;;;;;30.70;97741.80;;;;110473;1256;41398;-66
2022/06/28 06:57:41;;;;;;;5.90;2.50;;;;;31.06;97737.20;;;;110560;1253;41180;-66
2022/06/28 07:00:11;;;;;;;6.30;2.60;;;;;31.86;97742.20;;;;110624;1254;41253;-65
2022/06/28 07:02:43;;;;;;;8.00;2.50;;;;;32.04;97739.00;;;;110314;1254;41150;-64
2022/06/28 07:05:41;;;;;;;5.00;2.30;;;;;32.00;97737.60;;;;110421;1255;42084;-67
2022/06/28 07:08:28;;;;;;;5.20;2.30;;;;;31.60;97740.60;;;;110373;1254;41150;-67
2022/06/28 07:11:01;;;;;;;4.60;2.10;;;;;31.34;97740.20;;;;110496;1253;41262;-65
2022/06/28 07:13:31;;;;;;;5.40;2.30;;;;;31.10;97739.80;;;;110423;1255;41166;-67
2022/06/28 07:16:01;;;;;;;6.60;2.40;;;;;31.20;97746.80;;;;110352;1253;41165;-67
2022/06/28 07:18:30;;;;;;;5.70;2.30;;;;;31.30;97744.00;;;;110415;1256;41751;-68
2022/06/28 07:21:00;;;;;;;6.80;2.70;;;;;31.50;97745.60;;;;110508;1254;41133;-68
2022/06/28 07:23:29;;;;;;;5.90;2.40;;;;;31.76;97748.40;;;;110518;1253;41170;-67
2022/06/28 07:25:58;;;;;;;5.50;2.40;;;;;31.90;97748.00;;;;110633;1253;41673;-68
2022/06/28 07:28:27;;;;;;;5.00;2.20;;;;;32.20;97756.20;;;;110213;1256;327696;-67
2022/06/28 07:30:57;;;;;;;4.50;2.30;;;;;32.30;97752.00;;;;110335;1256;41634;-67
2022/06/28 07:33:26;;;;;;;5.30;2.20;;;;;32.20;97756.20;;;;110400;1255;41717;-68
2022/06/28 07:35:55;;;;;;;5.40;2.30;;;;;32.10;97757.60;;;;110506;1256;41168;-69
2022/06/28 07:38:24;;;;;;;6.60;2.50;;;;;32.00;97759.80;;;;110437;1254;41134;-66
2022/06/28 07:41:14;;;;;;;5.80;2.40;;;;;32.00;97761.00;;;;110470;1255;41160;-67
2022/06/28 07:44:09;;;;;;;5.90;2.40;;;;;31.80;97758.20;;;;110469;1253;42464;-67
2022/06/28 07:46:39;;;;;;;6.00;2.40;;;;;31.80;97759.40;;;;110474;1253;42022;-67
2022/06/28 07:49:09;;;;;;;6.40;2.30;;;;;31.90;97761.60;;;;110385;1256;41612;-68
2022/06/28 07:54:26;;;;;;;5.60;2.20;;;;;32.00;97764.00;;;;110466;1255;41405;-67
2022/06/28 07:57:03;;;;;;;4.80;2.30;;;;;32.14;97761.00;;;;110549;1253;41587;-68
2022/06/28 07:59:34;;;;;;;6.10;2.40;;;;;32.20;97759.20;;;;110501;1253;41453;-68
2022/06/28 08:02:03;;;;;;;5.10;2.30;;;;;32.20;97759.60;;;;110687;1253;41139;-68
2022/06/28 08:04:34;;;;;;;7.70;2.40;;;;;32.30;97759.80;;;;110667;1253;41127;-66
2022/06/28 08:07:03;;;;;;;4.60;2.00;;;;;32.20;97765.80;;;;110465;1254;41258;-67
2022/06/28 08:09:33;;;;;;;4.30;2.10;;;;;32.10;97768.00;;;;110499;1253;42145;-67
2022/06/28 08:12:04;;;;;;;6.10;2.10;;;;;32.18;97764.80;;;;110491;1255;41163;-67
2022/06/28 08:14:33;;;;;;;6.50;2.40;;;;;32.18;97758.40;;;;110439;1253;41213;-67
2022/06/28 08:17:04;;;;;;;6.00;2.30;;;;;32.10;97764.80;;;;110375;1253;41166;-67
2022/06/28 08:19:34;;;;;;;8.00;2.60;;;;;32.10;97758.00;;;;110464;1254;41869;-67
2022/06/28 08:22:04;;;;;;;5.50;2.50;;;;;32.10;97753.00;;;;110423;1253;41385;-67
2022/06/28 08:24:33;;;;;;;5.50;2.20;;;;;32.20;97756.00;;;;110405;1253;41875;-68
2022/06/28 08:27:03;;;;;;;4.70;2.30;;;;;32.40;97751.80;;;;110537;1253;41264;-68
2022/06/28 08:29:33;;;;;;;5.30;2.20;;;;;32.60;97748.00;;;;110641;1253;41270;-67
2022/06/28 08:32:03;;;;;;;5.40;2.30;;;;;32.90;97746.40;;;;110575;1253;41272;-67
2022/06/28 08:34:32;;;;;;;5.30;2.30;;;;;33.10;97748.20;;;;110628;1253;41130;-67
2022/06/28 08:37:01;;;;;;;5.40;2.30;;;;;33.26;97738.60;;;;110490;1256;41149;-67
2022/06/28 08:39:30;;;;;;;4.60;2.00;;;;;33.36;97735.40;;;;110656;1253;41151;-67
2022/06/28 08:42:02;;;;;;;4.50;2.20;;;;;33.30;97738.80;;;;110380;1253;41167;-67
2022/06/28 08:44:34;;;;;;;7.90;2.20;;;;;33.40;97738.40;;;;110291;1254;41522;-67
2022/06/28 08:47:04;;;;;;;5.40;2.20;;;;;33.70;97735.00;;;;110354;1256;41147;-68
2022/06/28 08:49:36;;;;;;;4.70;2.00;;;;;33.90;97743.40;;;;110418;1255;41370;-68
2022/06/28 08:52:08;;;;;;;5.40;2.10;;;;;34.10;97734.80;;;;110463;1253;41186;-67
2022/06/28 08:54:38;;;;;;;5.60;2.10;;;;;34.30;97736.20;;;;110523;1253;41160;-68
2022/06/28 08:57:07;;;;;;;5.40;2.00;;;;;34.40;97733.20;;;;110360;1256;41219;-67
2022/06/28 08:59:37;;;;;;;3.80;1.60;;;;;34.54;97730.40;;;;110355;1253;41201;-66
2022/06/28 09:02:06;;;;;;;5.90;1.90;;;;;34.80;97726.40;;;;110356;1253;41259;-66
2022/06/28 09:04:37;;;;;;;3.90;1.70;;;;;35.00;97730.60;;;;110397;1253;41574;-67
2022/06/28 09:07:06;;;;;;;8.70;1.80;;;;;35.20;97729.80;;;;110502;1253;41886;-67
2022/06/28 09:09:35;;;;;;;6.00;2.00;;;;;35.40;97732.60;;;;110510;1254;41220;-67
2022/06/28 09:12:05;;;;;;;3.80;2.00;;;;;35.40;97729.00;;;;110437;1254;41275;-67
2022/06/28 09:14:34;;;;;;;3.40;1.90;;;;;35.50;97725.80;;;;110503;1254;41422;-67
2022/06/28 09:17:24;;;;;;;4.30;1.80;;;;;35.80;97727.20;;;;110489;1254;41162;-68
2022/06/28 09:19:59;;;;;;;4.50;1.80;;;;;35.90;97727.80;;;;110409;1254;41592;-68
2022/06/28 09:22:34;;;;;;;6.30;2.10;;;;;35.90;97722.00;;;;110458;1254;41600;-68
2022/06/28 09:25:10;;;;;;;4.40;1.70;;;;;36.20;97720.40;;;;110579;1253;41134;-68
2022/06/28 09:27:41;;;;;;;4.30;1.70;;;;;36.22;97709.80;;;;110564;1254;41157;-67
2022/06/28 09:30:12;;;;;;;4.00;1.80;;;;;36.74;97708.40;;;;110569;1253;41147;-67
2022/06/28 09:32:42;;;;;;;3.90;1.70;;;;;37.04;97699.20;;;;110476;1256;41273;-67
2022/06/28 09:35:12;;;;;;;4.10;1.70;;;;;37.94;97692.40;;;;110410;1256;40888;-69
2022/06/28 09:37:50;;;;;;;5.20;2.00;;;;;38.50;97695.60;;;;110489;1254;40900;-68
2022/06/28 09:40:29;;;;;;;3.40;1.50;;;;;38.70;97691.40;;;;110630;1253;41172;-68
2022/06/28 09:43:10;;;;;;;5.20;1.80;;;;;38.60;97693.40;;;;110627;1253;41257;-67
2022/06/28 09:45:45;;;;;;;6.30;1.70;;;;;37.96;97685.60;;;;110575;1253;41657;-68
2022/06/28 09:48:18;;;;;;;4.20;1.80;;;;;37.80;97687.40;;;;110525;1253;41828;-68
2022/06/28 09:50:48;;;;;;;2.90;1.50;;;;;37.80;97684.80;;;;110426;1256;42182;-68
2022/06/28 09:53:20;;;;;;;3.80;1.70;;;;;37.90;97681.00;;;;110459;1253;41381;-68
2022/06/28 09:55:50;;;;;;;5.30;1.90;;;;;38.36;97680.40;;;;110572;1254;41455;-67
2022/06/28 09:58:19;;;;;;;4.60;1.70;;;;;38.74;97680.60;;;;110453;1256;41151;-68
2022/06/28 10:00:49;;;;;;;;;;;;;39.16;97678.00;;;;110410;1256;42416;-68
2022/06/28 10:03:18;;;;;;;4.20;1.70;;;;;39.26;97676.00;;;;110635;1253;41626;-68
2022/06/28 10:05:48;;;;;;;3.40;1.50;;;;;39.10;97671.00;;;;110445;1255;41275;-67
2022/06/28 10:08:17;;;;;;;3.20;1.50;;;;;38.34;97667.00;;;;110424;1256;42276;-68
2022/06/28 10:10:46;;;;;;;;;;;;;37.70;97664.40;;;;110470;1255;42576;-68
2022/06/28 10:16:41;;;;;;;3.20;1.60;;;;;37.00;97659.80;;;;110453;1253;41591;-68
2022/06/28 10:19:18;;;;;;;3.20;1.70;;;;;36.70;97667.40;;;;110621;1255;41279;-67
2022/06/28 10:21:52;;;;;;;4.30;1.90;;;;;36.40;97664.00;;;;110569;1255;41684;-68
2022/06/28 10:24:21;;;;;;;5.70;1.90;;;;;36.10;97664.60;;;;110436;1256;41703;-66
2022/06/28 10:27:12;;;;;;;4.00;1.80;;;;;36.00;97655.60;;;;110470;1255;41834;-68
2022/06/28 10:30:07;;;;;;;3.20;1.60;;;;;36.10;97646.40;;;;110646;1253;41926;-67
2022/06/28 10:32:49;;;;;;;6.20;2.00;;;;;36.00;97645.80;;;;110610;1253;42503;-67
2022/06/28 10:35:33;;;;;;;2.70;1.60;;;;;35.42;97644.60;;;;110614;1254;41161;-67
2022/06/28 10:38:09;;;;;;;4.40;1.70;;;;;35.68;97646.60;;;;110632;1255;41159;-67
2022/06/28 10:40:41;;;;;;;7.20;2.20;;;;;36.02;97641.00;;;;110614;1253;41737;-67
2022/06/28 10:43:16;;;;;;;4.70;1.80;;;;;33.66;97647.60;;;;110637;1253;41521;-67
2022/06/28 10:46:00;;;;;;;2.70;1.50;;;;;34.54;97640.80;;;;110680;1254;41992;-67
2022/06/28 10:48:31;;;;;;;3.80;1.90;;;;;34.82;97644.00;;;;110625;1253;41368;-67
2022/06/28 10:51:02;;;;;;;6.80;2.00;;;;;33.42;97638.00;;;;110557;1253;41169;-66
2022/06/28 10:54:02;;;;;;;11.30;2.10;;;;;33.42;97642.80;;;;110535;1254;41894;-66
2022/06/28 10:56:38;;;;;;;8.40;2.10;;;;;32.96;97641.20;;;;110473;1254;41154;-68
2022/06/28 10:59:10;;;;;;;4.00;1.80;;;;;33.34;97638.20;;;;110615;1255;41609;-67
2022/06/28 11:01:39;;;;;;;3.50;1.70;;;;;34.44;97634.20;;;;110502;1253;41512;-68
2022/06/28 11:04:11;;;;;;;6.10;1.80;;;;;35.24;97629.00;;;;110496;1256;41137;-68
2022/06/28 11:06:41;;;;;;;4.60;1.80;;;;;34.02;97629.80;;;;110629;1253;41230;-68
2022/06/28 11:09:44;;;;;;;4.60;1.90;;;;;33.58;97627.00;;;;110606;1253;42077;-67
2022/06/28 11:12:16;;;;;;;3.80;1.80;;;;;33.60;97622.80;;;;110434;1255;41625;-68
2022/06/28 11:14:54;;;;;;;8.60;2.10;;;;;33.98;97618.00;;;;110509;1256;41965;-68
2022/06/28 11:17:31;;;;;;;6.20;1.60;;;;;34.66;97610.00;;;;110571;1253;41312;-68
2022/06/28 11:20:02;;;;;;;8.10;2.20;;;;;36.52;97599.00;;;;110730;1253;40749;-67
2022/06/28 11:22:52;;;;;;;3.70;1.80;;;;;34.92;97598.00;;;;110615;1255;41171;-68
2022/06/28 11:25:23;;;;;;;4.80;1.90;;;;;36.74;97602.80;;;;110658;1253;41320;-68
2022/06/28 11:27:56;;;;;;;4.30;1.90;;;;;38.26;97594.80;;;;110544;1255;41625;-68
2022/06/28 11:30:28;;;;;;;5.20;1.70;;;;;38.18;97588.60;;;;110679;1253;41150;-68
2022/06/28 11:32:58;;;;;;;4.20;1.70;;;;;38.12;97586.40;;;;110433;1253;41157;-67
2022/06/28 11:35:30;;;;;;;4.50;1.70;;;;;38.78;97582.60;;;;110501;1253;41164;-68
2022/06/28 11:38:07;;;;;;;4.70;1.70;;;;;39.38;97583.00;;;;110396;1253;41625;-69
2022/06/28 11:40:45;;;;;;;3.50;1.60;;;;;40.56;97582.80;;;;110574;1256;41193;-69
2022/06/28 11:43:18;;;;;;;5.10;1.70;;;;;41.70;97574.00;;;;110677;1253;41182;-68
2022/06/28 11:45:49;;;;;;;5.10;1.70;;;;;40.68;97580.00;;;;110633;1253;41434;-68
2022/06/28 11:48:21;;;;;;;5.50;1.80;;;;;41.40;97584.60;;;;110287;1256;41164;-68
2022/06/28 11:50:52;;;;;;;4.10;1.50;;;;;41.50;97587.20;;;;110442;1256;41155;-68
2022/06/28 11:53:22;;;;;;;4.80;1.60;;;;;39.84;97581.60;;;;110518;1253;41857;-68
2022/06/28 11:55:53;;;;;;;3.40;1.70;;;;;40.12;97584.00;;;;110512;1254;41134;-68
2022/06/28 11:58:28;;;;;;;4.10;1.50;;;;;40.80;97573.20;;;;110643;1253;41159;-68
2022/06/28 12:01:05;;;;;;;4.20;1.40;;;;;41.30;97579.40;;;;110597;1253;41748;-68
2022/06/28 12:03:41;;;;;;;4.20;1.70;;;;;42.00;97574.20;;;;110491;1255;41733;-68
2022/06/28 12:06:30;;;;;;;3.10;1.40;;;;;42.34;97573.80;;;;110374;1256;41163;-68
2022/06/28 12:09:00;;;;;;;;;;;;;41.62;97577.40;;;;110640;1253;40717;-67
2022/06/28 12:11:30;;;;;;;3.00;1.70;;;;;41.22;97581.60;;;;110450;1255;41893;-67
2022/06/28 12:14:08;;;;;;;2.90;1.60;;;;;39.80;97581.00;;;;110600;1253;41493;-68
2022/06/28 12:16:46;;;;;;;4.30;1.70;;;;;39.06;97580.00;;;;110634;1253;41130;-68
2022/06/28 12:19:28;;;;;;;4.40;1.80;;;;;36.64;97587.40;;;;110632;1254;41307;-68
2022/06/28 12:22:04;;;;;;;3.50;1.60;;;;;36.82;97585.20;;;;110600;1254;41133;-68
2022/06/28 12:24:40;;;;;;;5.50;2.00;;;;;36.50;97586.40;;;;110626;1255;41260;-67
2022/06/28 12:27:12;;;;;;;4.30;1.80;;;;;36.46;97588.00;;;;110638;1255;41163;-68
2022/06/28 12:29:41;;;;;;;5.10;2.20;;;;;35.62;97591.00;;;;110493;1255;41180;-68
2022/06/28 12:32:10;;;;;;;5.80;2.30;;;;;35.50;97586.20;;;;110505;1255;41695;-67
2022/06/28 12:35:05;;;;;;;5.50;1.60;;;;;34.56;97586.80;;;;110589;1256;42403;-68
2022/06/28 12:37:34;;;;;;;4.80;1.60;;;;;34.00;97587.20;;;;110587;1253;41145;-67
2022/06/28 12:40:05;;;;;;;2.70;1.40;;;;;34.00;97585.20;;;;110639;1256;41552;-69
2022/06/28 12:42:34;;;;;;;3.30;1.70;;;;;34.20;97581.20;;;;110505;1255;41851;-68
2022/06/28 12:45:03;;;;;;;4.50;1.70;;;;;34.38;97583.00;;;;110631;1253;41853;-68
2022/06/28 12:47:39;;;;;;;3.60;1.80;;;;;34.50;97584.80;;;;110456;1253;41203;-68
2022/06/28 12:50:13;;;;;;;4.70;1.70;;;;;34.20;97581.00;;;;110447;1255;41167;-68
2022/06/28 12:52:46;;;;;;;2.10;1.40;;;;;34.10;97585.00;;;;110547;1256;41168;-68